Time;durP1;ratioP1;P1;durP2;ratioP2;P2;SDS_P1;SDS_P2;PMS_P1;PMS_P2;Temp;Humidity;BMP_temperature;BMP_pressure;BME280_temperature;BME280_humidity;BME280_pressure;Samples;Min_cycle;Max_cycle;Signal;HPM_P1;HPM_P2
2021/01/30 00:00:10;;;;;;;5.35;2.97;;;4.10;99.90;;;;;;5020005;28;20459;-54
2021/01/30 00:02:36;;;;;;;5.05;3.08;;;4.00;99.90;;;;;;5012925;28;20040;-51
2021/01/30 00:05:02;;;;;;;8.98;3.92;;;4.00;99.90;;;;;;5019919;28;20037;-55
2021/01/30 00:07:27;;;;;;;6.00;3.20;;;4.00;99.90;;;;;;5016902;28;20037;-58
2021/01/30 00:09:53;;;;;;;8.05;2.95;;;4.00;99.90;;;;;;5020004;28;20045;-55
2021/01/30 00:12:19;;;;;;;5.72;3.75;;;4.00;99.90;;;;;;5025447;28;20548;-50
2021/01/30 00:14:44;;;;;;;8.88;3.60;;;4.00;99.90;;;;;;5025099;28;20112;-55
2021/01/30 00:17:10;;;;;;;;;;;4.00;99.90;;;;;;5018426;28;20030;-52
2021/01/30 00:19:37;;;;;;;5.72;3.88;;;3.90;99.90;;;;;;5017483;28;20581;-55
2021/01/30 00:22:07;;;;;;;7.30;4.07;;;3.90;99.90;;;;;;5018090;28;20065;-52
2021/01/30 00:24:33;;;;;;;8.30;3.95;;;3.90;99.90;;;;;;5022980;28;20049;-52
2021/01/30 00:27:04;;;;;;;6.85;4.28;;;3.90;99.90;;;;;;5020955;28;20038;-56
2021/01/30 00:29:32;;;;;;;5.90;4.43;;;3.90;99.90;;;;;;5017748;28;20886;-53
2021/01/30 00:31:59;;;;;;;7.30;4.07;;;3.90;99.90;;;;;;5018302;28;20045;-57
2021/01/30 00:34:27;;;;;;;9.50;5.25;;;3.90;99.90;;;;;;5024171;28;20099;-55
2021/01/30 00:36:58;;;;;;;11.85;4.47;;;3.90;99.90;;;;;;5013982;28;20037;-51
2021/01/30 00:39:23;;;;;;;6.65;5.25;;;3.90;99.90;;;;;;5006982;28;20042;-56
2021/01/30 00:41:49;;;;;;;11.10;5.90;;;3.90;99.90;;;;;;5012463;28;20092;-54
2021/01/30 00:44:18;;;;;;;9.60;6.38;;;3.80;99.90;;;;;;5028125;28;20041;-53
2021/01/30 00:46:48;;;;;;;14.88;7.18;;;3.80;99.90;;;;;;5018074;28;20080;-57
2021/01/30 00:49:14;;;;;;;13.05;6.60;;;3.70;99.90;;;;;;5019080;28;20042;-53
2021/01/30 00:51:39;;;;;;;14.68;6.53;;;3.70;99.90;;;;;;5017614;28;20728;-54
2021/01/30 00:54:05;;;;;;;13.95;7.00;;;3.70;99.90;;;;;;5012827;28;20034;-54
2021/01/30 00:56:31;;;;;;;10.15;6.30;;;3.60;99.90;;;;;;5021425;28;20580;-51
2021/01/30 00:58:56;;;;;;;14.65;7.07;;;3.60;99.90;;;;;;5019502;28;20221;-55
2021/01/30 01:01:22;;;;;;;14.02;6.28;;;3.60;99.90;;;;;;5017410;28;20124;-52
2021/01/30 01:03:47;;;;;;;11.70;6.85;;;3.60;99.90;;;;;;5023996;28;20041;-51
2021/01/30 01:06:12;;;;;;;8.73;6.57;;;3.50;99.90;;;;;;5018214;28;20093;-52
2021/01/30 01:08:38;;;;;;;7.07;5.03;;;3.60;99.90;;;;;;5019167;28;20041;-57
2021/01/30 01:11:03;;;;;;;10.02;5.60;;;3.50;99.90;;;;;;5021910;28;20079;-56
2021/01/30 01:13:29;;;;;;;9.48;4.97;;;3.50;99.90;;;;;;5024693;28;20597;-57
2021/01/30 01:15:56;;;;;;;5.88;4.10;;;3.50;99.90;;;;;;5024800;28;20505;-56
2021/01/30 01:18:22;;;;;;;5.97;4.05;;;3.50;99.90;;;;;;5018622;28;20041;-56
2021/01/30 01:20:47;;;;;;;6.35;3.67;;;3.40;99.90;;;;;;5023311;28;20716;-54
2021/01/30 01:23:14;;;;;;;5.60;4.28;;;3.30;99.90;;;;;;5020061;28;20041;-56
2021/01/30 01:25:40;;;;;;;8.52;4.75;;;3.30;99.90;;;;;;5025146;28;20121;-56
2021/01/30 01:28:05;;;;;;;7.57;5.50;;;3.20;99.90;;;;;;5018034;28;20041;-53
2021/01/30 01:30:31;;;;;;;10.20;5.40;;;3.20;99.90;;;;;;5023844;28;20044;-54
2021/01/30 01:32:57;;;;;;;7.93;5.47;;;3.10;99.90;;;;;;5014741;28;20080;-52
2021/01/30 01:35:29;;;;;;;6.85;4.90;;;3.10;99.90;;;;;;5023087;28;20053;-56
2021/01/30 01:37:55;;;;;;;6.07;4.47;;;3.10;99.90;;;;;;5017200;28;20506;-56
2021/01/30 01:40:25;;;;;;;7.72;5.18;;;3.00;99.90;;;;;;5020044;28;20037;-53
2021/01/30 01:42:57;;;;;;;7.68;4.95;;;3.10;99.90;;;;;;5023717;28;20084;-56
2021/01/30 01:45:23;;;;;;;6.72;4.68;;;3.00;99.90;;;;;;5024137;28;20664;-55
2021/01/30 01:47:48;;;;;;;7.32;5.00;;;3.00;99.90;;;;;;5025323;28;20563;-56
2021/01/30 01:50:37;;;;;;;9.38;6.00;;;2.90;99.90;;;;;;5019809;28;20504;-57
2021/01/30 01:53:14;;;;;;;10.10;7.07;;;2.80;99.90;;;;;;5022712;28;20387;-57
2021/01/30 01:55:44;;;;;;;12.27;7.43;;;2.70;99.90;;;;;;5019379;28;20037;-52
2021/01/30 01:58:10;;;;;;;10.32;6.57;;;2.60;99.90;;;;;;5022946;28;20552;-55
2021/01/30 02:00:36;;;;;;;12.30;7.50;;;2.60;99.90;;;;;;5017290;28;20042;-52
2021/01/30 02:03:02;;;;;;;14.60;7.10;;;2.50;99.90;;;;;;5020836;28;20034;-55
2021/01/30 02:05:34;;;;;;;12.63;8.25;;;2.50;99.90;;;;;;5012128;28;20041;-55
2021/01/30 02:08:05;;;;;;;25.33;8.52;;;2.40;99.90;;;;;;5017084;28;20034;-52
2021/01/30 02:10:37;;;;;;;26.13;8.98;;;2.40;99.90;;;;;;5022776;28;20044;-54
2021/01/30 02:13:07;;;;;;;13.55;8.63;;;2.30;99.90;;;;;;5025780;28;20136;-52
2021/01/30 02:15:33;;;;;;;16.42;9.25;;;2.20;99.90;;;;;;5023760;28;20057;-56
2021/01/30 02:18:10;;;;;;;18.58;10.10;;;2.30;99.90;;;;;;5022216;28;20076;-56
2021/01/30 02:21:00;;;;;;;15.45;9.27;;;2.30;99.90;;;;;;5019398;28;20144;-52
2021/01/30 02:23:38;;;;;;;19.25;9.13;;;2.10;99.90;;;;;;5024204;28;20060;-57
2021/01/30 02:26:22;;;;;;;19.75;10.70;;;2.10;99.90;;;;;;5017435;28;20124;-55
2021/01/30 02:29:24;;;;;;;22.27;9.88;;;2.00;99.90;;;;;;5016161;28;20038;-55
2021/01/30 02:31:50;;;;;;;18.23;9.45;;;2.00;99.90;;;;;;5020181;28;20051;-53
2021/01/30 02:34:21;;;;;;;32.83;10.93;;;1.90;99.90;;;;;;5016384;28;20037;-52
2021/01/30 02:36:47;;;;;;;24.10;11.65;;;1.70;99.90;;;;;;5017282;28;20057;-57
2021/01/30 02:39:34;;;;;;;18.90;9.80;;;1.50;99.90;;;;;;5016141;28;20041;-57
2021/01/30 02:42:42;;;;;;;18.95;10.23;;;1.40;99.90;;;;;;5015891;28;20061;-56
2021/01/30 02:45:24;;;;;;;20.10;10.50;;;1.40;99.90;;;;;;5001855;28;20072;-54
2021/01/30 02:47:58;;;;;;;18.05;9.52;;;1.40;99.90;;;;;;5016924;28;20046;-58
2021/01/30 02:50:28;;;;;;;19.63;7.68;;;1.30;99.90;;;;;;5015898;28;20049;-52
2021/01/30 02:52:57;;;;;;;17.05;9.15;;;1.30;99.90;;;;;;5017072;28;20048;-56
2021/01/30 02:55:25;;;;;;;12.15;7.00;;;1.20;99.90;;;;;;5004743;28;20080;-55
2021/01/30 02:57:52;;;;;;;11.63;6.95;;;1.30;99.90;;;;;;5004795;28;20480;-51
2021/01/30 03:00:21;;;;;;;12.02;7.82;;;1.20;99.90;;;;;;5012534;28;20046;-55
2021/01/30 03:02:46;;;;;;;11.38;6.95;;;1.30;99.90;;;;;;5011210;28;20060;-52
2021/01/30 03:05:12;;;;;;;11.80;6.95;;;1.30;99.90;;;;;;5015393;28;20041;-56
2021/01/30 03:07:52;;;;;;;12.23;7.28;;;1.20;99.90;;;;;;5018384;28;20041;-54
2021/01/30 03:10:45;;;;;;;12.68;7.30;;;1.10;99.90;;;;;;5016436;28;20041;-54
2021/01/30 03:13:14;;;;;;;11.75;6.50;;;1.00;99.90;;;;;;5023345;28;20029;-53
2021/01/30 03:15:50;;;;;;;9.73;5.90;;;1.10;99.90;;;;;;5021513;28;20092;-50
2021/01/30 03:18:19;;;;;;;8.70;4.55;;;1.00;99.90;;;;;;5008238;28;20042;-50
2021/01/30 03:20:46;;;;;;;8.60;4.13;;;1.00;99.90;;;;;;5025830;28;20128;-54
2021/01/30 03:23:14;;;;;;;7.78;4.03;;;1.10;99.90;;;;;;5018038;28;20116;-54
2021/01/30 03:25:41;;;;;;;3.60;2.20;;;1.00;99.90;;;;;;5017796;28;20560;-50
2021/01/30 03:28:08;;;;;;;5.25;2.45;;;1.00;99.90;;;;;;5017847;28;20513;-51
2021/01/30 03:30:34;;;;;;;3.50;2.13;;;0.80;99.90;;;;;;5025724;28;20041;-52
2021/01/30 03:33:00;;;;;;;2.78;1.80;;;0.70;99.90;;;;;;5024649;28;20602;-52
2021/01/30 03:35:26;;;;;;;3.97;2.30;;;0.80;99.90;;;;;;5025962;28;20051;-49
2021/01/30 03:37:52;;;;;;;3.05;2.08;;;0.70;99.90;;;;;;5018118;28;20044;-54
2021/01/30 03:40:20;;;;;;;2.63;1.90;;;0.70;99.90;;;;;;5017786;28;20038;-52
2021/01/30 03:42:46;;;;;;;3.38;1.80;;;0.60;99.90;;;;;;5029255;28;20060;-52
2021/01/30 03:45:14;;;;;;;3.38;2.05;;;0.70;99.90;;;;;;5024925;28;20049;-56
2021/01/30 03:47:40;;;;;;;3.08;1.80;;;0.60;99.90;;;;;;5019995;28;20063;-51
2021/01/30 03:50:08;;;;;;;3.10;2.35;;;0.60;99.90;;;;;;5015268;28;20038;-52
2021/01/30 03:52:34;;;;;;;3.65;2.33;;;0.40;99.90;;;;;;5027741;28;20042;-53
2021/01/30 03:55:00;;;;;;;4.95;2.53;;;0.40;99.90;;;;;;5021129;28;20041;-54
2021/01/30 03:57:26;;;;;;;4.45;2.53;;;0.40;99.90;;;;;;5025712;28;20931;-55
2021/01/30 03:59:51;;;;;;;4.47;2.63;;;0.40;99.90;;;;;;5030236;28;20096;-57
2021/01/30 04:02:18;;;;;;;3.58;2.47;;;0.30;99.90;;;;;;5026686;28;20574;-54
2021/01/30 04:04:45;;;;;;;4.75;2.90;;;0.20;99.90;;;;;;5021131;28;20076;-56
2021/01/30 04:07:10;;;;;;;5.55;2.65;;;0.10;99.90;;;;;;5026891;28;20045;-54
2021/01/30 04:09:36;;;;;;;8.05;4.20;;;0.20;99.90;;;;;;5019970;28;20095;-54
2021/01/30 04:12:01;;;;;;;7.05;4.63;;;0.20;99.90;;;;;;5028056;28;20060;-56
2021/01/30 04:14:27;;;;;;;7.93;4.85;;;0.30;99.90;;;;;;5026774;28;20144;-57
2021/01/30 04:16:52;;;;;;;10.52;6.55;;;0.20;99.90;;;;;;5020397;28;20051;-56
2021/01/30 04:19:18;;;;;;;9.38;6.45;;;0.10;99.90;;;;;;5019444;28;20040;-56
2021/01/30 04:21:43;;;;;;;10.85;6.50;;;0.00;99.90;;;;;;5020021;28;20061;-53
2021/01/30 04:24:09;;;;;;;11.50;7.78;;;0.00;99.90;;;;;;5019169;28;20063;-56
2021/01/30 04:26:35;;;;;;;10.43;7.30;;;-0.10;99.90;;;;;;5026706;28;20042;-55
2021/01/30 04:29:00;;;;;;;13.38;8.10;;;-0.10;99.90;;;;;;5027682;28;20029;-56
2021/01/30 04:31:26;;;;;;;12.95;8.00;;;0.00;99.90;;;;;;5018122;28;20354;-53
2021/01/30 04:33:52;;;;;;;13.38;8.70;;;0.00;99.90;;;;;;5022140;28;20037;-54
2021/01/30 04:36:20;;;;;;;18.85;11.45;;;0.10;99.90;;;;;;5027730;28;20129;-56
2021/01/30 04:38:45;;;;;;;17.98;11.02;;;0.00;99.90;;;;;;5024754;28;20091;-54
2021/01/30 04:41:42;;;;;;;19.75;11.65;;;0.00;99.90;;;;;;5019979;28;20049;-54
2021/01/30 04:44:17;;;;;;;21.23;12.23;;;-0.10;99.90;;;;;;5024807;28;20045;-53
2021/01/30 04:46:55;;;;;;;21.27;13.07;;;-0.20;99.90;;;;;;5018566;28;20289;-58
2021/01/30 04:49:33;;;;;;;24.23;14.38;;;-0.20;99.90;;;;;;5020334;28;20061;-56
2021/01/30 04:52:04;;;;;;;26.52;15.75;;;-0.20;99.90;;;;;;5009053;28;20107;-55
2021/01/30 04:54:57;;;;;;;30.05;16.63;;;-0.40;99.90;;;;;;5015016;28;20046;-53
2021/01/30 04:57:41;;;;;;;27.42;15.82;;;-0.40;99.90;;;;;;5023778;28;20106;-56
2021/01/30 05:00:32;;;;;;;28.30;16.35;;;-0.30;99.90;;;;;;5020093;28;20183;-55
2021/01/30 05:03:05;;;;;;;26.35;15.40;;;-0.30;99.90;;;;;;5008189;28;20038;-52
2021/01/30 05:05:31;;;;;;;27.77;16.52;;;-0.40;99.90;;;;;;5008675;28;20920;-53
2021/01/30 05:08:20;;;;;;;79.88;21.98;;;-0.30;99.90;;;;;;5017971;28;20048;-53
2021/01/30 05:10:53;;;;;;;146.63;24.25;;;-0.40;99.90;;;;;;5022220;28;20091;-53
2021/01/30 05:14:05;;;;;;;271.95;25.95;;;-0.60;99.90;;;;;;5025892;28;20038;-51
2021/01/30 05:16:35;;;;;;;89.13;19.58;;;-0.70;99.90;;;;;;4978313;28;20094;-55
2021/01/30 05:19:11;;;;;;;148.52;21.52;;;-0.80;99.90;;;;;;4980697;28;20090;-59
2021/01/30 05:21:53;;;;;;;64.00;20.05;;;-0.80;99.90;;;;;;4991405;28;20060;-57
2021/01/30 05:24:20;;;;;;;64.93;20.50;;;-0.90;99.90;;;;;;5005265;28;20041;-53
2021/01/30 05:26:58;;;;;;;66.88;20.92;;;-1.20;99.90;;;;;;5005814;28;20037;-58
2021/01/30 05:30:01;;;;;;;63.00;22.58;;;-1.40;99.90;;;;;;5005908;28;20056;-58
2021/01/30 05:32:38;;;;;;;68.75;21.73;;;-1.40;99.90;;;;;;4999691;28;20044;-58
2021/01/30 05:35:11;;;;;;;191.65;25.38;;;-1.40;99.90;;;;;;5007930;28;20045;-58
2021/01/30 05:37:55;;;;;;;56.75;21.42;;;-1.40;99.90;;;;;;5006153;28;20053;-55
2021/01/30 05:40:32;;;;;;;242.73;31.02;;;-1.40;99.90;;;;;;5000089;28;20088;-55
2021/01/30 05:43:33;;;;;;;239.20;27.95;;;-1.60;99.90;;;;;;5018700;28;20056;-56
2021/01/30 05:46:01;;;;;;;333.38;30.17;;;-1.60;99.90;;;;;;5004672;28;20081;-53
2021/01/30 05:48:35;;;;;;;300.55;29.35;;;-1.70;99.90;;;;;;5004322;28;20042;-56
2021/01/30 05:51:24;;;;;;;160.80;22.55;;;-1.60;99.90;;;;;;5005896;28;20050;-55
2021/01/30 05:53:49;;;;;;;502.23;38.33;;;-1.60;99.90;;;;;;5005251;28;20046;-52
2021/01/30 05:56:16;;;;;;;85.97;19.73;;;-1.50;99.90;;;;;;5005714;28;20596;-52
2021/01/30 05:58:45;;;;;;;123.88;17.23;;;-1.50;99.90;;;;;;5005293;28;20085;-58
2021/01/30 06:01:16;;;;;;;56.53;15.57;;;-1.40;99.90;;;;;;5006240;28;20034;-53
2021/01/30 06:03:54;;;;;;;113.25;17.10;;;-1.50;99.90;;;;;;5005428;28;20096;-55
2021/01/30 06:06:20;;;;;;;34.63;14.35;;;-1.60;99.90;;;;;;5005733;28;20042;-53
2021/01/30 06:08:58;;;;;;;48.85;14.35;;;-1.60;99.90;;;;;;5006640;28;20048;-51
2021/01/30 06:11:25;;;;;;;269.10;23.65;;;-1.60;99.90;;;;;;5008145;28;20497;-55
2021/01/30 06:13:54;;;;;;;412.58;31.70;;;-1.60;99.90;;;;;;5007724;28;20498;-56
2021/01/30 06:16:39;;;;;;;134.73;17.15;;;-1.50;99.90;;;;;;5005360;28;20500;-56
2021/01/30 06:19:20;;;;;;;389.92;25.67;;;-1.60;99.90;;;;;;5005902;28;20457;-57
2021/01/30 06:22:06;;;;;;;269.63;20.92;;;-1.60;99.90;;;;;;4998000;28;20041;-58
2021/01/30 06:24:32;;;;;;;300.33;22.55;;;-1.60;99.90;;;;;;5006055;28;20045;-54
2021/01/30 06:27:06;;;;;;;125.18;16.40;;;-1.60;99.90;;;;;;5005033;28;20033;-53
2021/01/30 06:29:37;;;;;;;453.08;31.90;;;-1.40;99.90;;;;;;5005792;28;20046;-54
2021/01/30 06:32:20;;;;;;;282.83;23.55;;;-1.50;99.90;;;;;;5005517;28;20042;-58
2021/01/30 06:35:08;;;;;;;363.40;27.70;;;-1.60;99.90;;;;;;5009139;28;20045;-59
2021/01/30 06:37:52;;;;;;;66.72;15.27;;;-1.60;99.90;;;;;;5009828;28;20073;-54
2021/01/30 06:40:37;;;;;;;490.83;38.97;;;-1.50;99.90;;;;;;5000835;28;20577;-55
2021/01/30 06:43:16;;;;;;;225.07;20.85;;;-1.40;99.90;;;;;;5015557;28;20045;-53
2021/01/30 06:45:45;;;;;;;167.27;23.02;;;-1.60;99.90;;;;;;5008255;28;20830;-57
2021/01/30 06:48:33;;;;;;;41.17;14.45;;;-1.70;99.90;;;;;;4998042;28;20069;-55
2021/01/30 06:51:00;;;;;;;25.55;11.10;;;-1.70;99.90;;;;;;5005817;28;20074;-55
2021/01/30 06:53:31;;;;;;;64.93;11.68;;;-1.60;99.90;;;;;;5006783;28;20082;-54
2021/01/30 06:56:21;;;;;;;38.88;13.40;;;-1.60;99.90;;;;;;5007283;28;20040;-55
2021/01/30 06:58:50;;;;;;;31.63;13.90;;;-1.70;99.90;;;;;;5005893;28;20057;-58
2021/01/30 07:01:21;;;;;;;116.57;17.05;;;-1.70;99.90;;;;;;5003776;28;20060;-58
2021/01/30 07:04:28;;;;;;;32.47;11.10;;;-1.80;99.90;;;;;;5007395;28;20120;-56
2021/01/30 07:06:54;;;;;;;;;;;-1.70;99.90;;;;;;4991578;28;20044;-55
2021/01/30 07:09:39;;;;;;;95.60;14.30;;;-1.70;99.90;;;;;;5007637;28;19918;-57
2021/01/30 07:12:05;;;;;;;18.48;9.18;;;-1.70;99.90;;;;;;5006372;28;20041;-54
2021/01/30 07:14:44;;;;;;;25.92;10.95;;;-1.60;99.90;;;;;;5005385;28;20054;-52
2021/01/30 07:17:37;;;;;;;26.77;12.68;;;-1.70;99.90;;;;;;5005802;28;20045;-55
2021/01/30 07:20:27;;;;;;;21.38;10.57;;;-1.70;99.90;;;;;;5000922;28;20069;-57
2021/01/30 07:23:12;;;;;;;13.93;8.30;;;-1.60;99.90;;;;;;5006368;28;20052;-57
2021/01/30 07:26:14;;;;;;;14.77;9.77;;;-1.70;99.90;;;;;;5004626;28;20153;-54
2021/01/30 07:29:00;;;;;;;10.95;7.45;;;-1.80;99.90;;;;;;5001278;28;20054;-56
2021/01/30 07:31:28;;;;;;;11.37;7.90;;;-2.00;99.90;;;;;;5005020;28;20053;-56
2021/01/30 07:34:03;;;;;;;9.15;5.97;;;-2.00;99.90;;;;;;5005632;28;20288;-54
2021/01/30 07:36:52;;;;;;;8.48;5.20;;;-2.00;99.90;;;;;;5006026;28;20065;-54
2021/01/30 07:39:39;;;;;;;8.93;4.95;;;-1.80;99.90;;;;;;5000278;28;20065;-52
2021/01/30 07:42:40;;;;;;;5.55;3.38;;;-1.80;99.90;;;;;;5005392;28;20414;-56
2021/01/30 07:45:17;;;;;;;5.97;3.78;;;-1.80;99.90;;;;;;5010385;28;20103;-56
2021/01/30 07:48:18;;;;;;;4.80;3.28;;;-1.90;99.90;;;;;;5017704;28;20049;-59
2021/01/30 07:50:52;;;;;;;4.30;3.08;;;-2.00;99.90;;;;;;5022609;28;20125;-54
2021/01/30 07:53:20;;;;;;;7.90;4.18;;;-1.80;99.90;;;;;;5010344;28;20579;-58
2021/01/30 07:56:11;;;;;;;6.45;4.15;;;-1.90;99.90;;;;;;5017799;28;20080;-56
2021/01/30 07:58:58;;;;;;;9.48;6.15;;;-1.90;99.90;;;;;;5014590;28;20215;-57
2021/01/30 08:01:40;;;;;;;6.47;4.63;;;-1.90;99.90;;;;;;5023999;28;20045;-57
2021/01/30 08:04:06;;;;;;;6.60;4.07;;;-1.90;99.90;;;;;;5017527;28;20498;-53
2021/01/30 08:06:41;;;;;;;7.75;3.17;;;-1.90;99.90;;;;;;5016792;28;20059;-57
2021/01/30 08:09:28;;;;;;;6.22;3.47;;;-1.90;99.90;;;;;;5016295;28;20042;-54
2021/01/30 08:12:07;;;;;;;5.72;3.75;;;-1.90;99.90;;;;;;5025050;28;20048;-57
2021/01/30 08:14:41;;;;;;;6.82;4.50;;;-1.80;99.90;;;;;;5017221;28;20037;-58
2021/01/30 08:17:25;;;;;;;7.05;5.03;;;-1.90;99.90;;;;;;5014705;28;20463;-59
2021/01/30 08:20:06;;;;;;;5.43;4.10;;;-1.80;99.90;;;;;;5018792;28;20781;-59
2021/01/30 08:22:44;;;;;;;7.15;4.72;;;-1.90;99.90;;;;;;5021855;28;20043;-54
2021/01/30 08:25:16;;;;;;;8.10;4.85;;;-1.90;99.90;;;;;;5025435;28;20054;-53
2021/01/30 08:27:48;;;;;;;6.82;4.68;;;-1.80;99.90;;;;;;5023770;28;20069;-56
2021/01/30 08:30:18;;;;;;;8.20;5.50;;;-1.90;99.90;;;;;;5020658;28;20030;-57
2021/01/30 08:32:58;;;;;;;13.63;7.53;;;-1.80;99.90;;;;;;5016008;28;20065;-51
2021/01/30 08:35:24;;;;;;;15.05;8.63;;;-1.90;99.90;;;;;;5017183;28;20049;-57
2021/01/30 08:37:58;;;;;;;7.07;5.20;;;-2.00;99.90;;;;;;5024706;28;20389;-58
2021/01/30 08:40:42;;;;;;;8.43;4.75;;;-2.00;99.90;;;;;;5022021;28;20175;-60
2021/01/30 08:43:11;;;;;;;6.40;4.38;;;-2.00;99.90;;;;;;5032566;28;20045;-55
2021/01/30 08:45:36;;;;;;;6.53;4.82;;;-2.00;99.90;;;;;;5021613;28;20042;-51
2021/01/30 08:48:25;;;;;;;7.13;5.13;;;-2.10;99.90;;;;;;5023992;28;20130;-50
2021/01/30 08:50:52;;;;;;;8.85;5.22;;;-2.00;99.90;;;;;;5023875;28;20095;-53
2021/01/30 08:53:38;;;;;;;6.13;4.78;;;-1.90;99.90;;;;;;5017366;28;20107;-54
2021/01/30 08:56:05;;;;;;;7.57;4.40;;;-1.70;99.90;;;;;;5011152;28;20060;-51
2021/01/30 08:58:37;;;;;;;8.02;4.97;;;-1.60;99.90;;;;;;5018989;28;20060;-51
2021/01/30 09:01:07;;;;;;;6.88;4.05;;;-1.70;99.90;;;;;;5020567;28;20649;-49
2021/01/30 09:03:36;;;;;;;6.60;4.75;;;-1.70;99.90;;;;;;5032272;28;20113;-49
2021/01/30 09:06:01;;;;;;;7.68;3.88;;;-1.60;99.90;;;;;;5026932;28;20413;-49
2021/01/30 09:08:34;;;;;;;6.13;4.22;;;-1.40;99.90;;;;;;5022278;28;20037;-52
2021/01/30 09:11:35;;;;;;;5.25;3.38;;;-1.30;99.90;;;;;;5023985;28;20037;-50
2021/01/30 09:14:18;;;;;;;6.03;3.42;;;-1.30;99.90;;;;;;5019277;28;20064;-50
2021/01/30 09:17:05;;;;;;;5.85;3.50;;;-1.40;99.90;;;;;;5017611;28;20041;-50
2021/01/30 09:19:30;;;;;;;;;;;-1.40;99.90;;;;;;5026925;28;20493;-49
2021/01/30 09:22:05;;;;;;;5.20;3.30;;;-1.40;99.90;;;;;;5018513;28;19928;-49
2021/01/30 09:24:51;;;;;;;4.97;3.40;;;-1.50;99.90;;;;;;5029407;28;20042;-53
2021/01/30 09:27:27;;;;;;;7.28;4.28;;;-1.40;99.90;;;;;;5022619;28;20124;-50
2021/01/30 09:29:54;;;;;;;;;;;-1.40;99.90;;;;;;5017916;28;20033;-51
2021/01/30 09:32:28;;;;;;;5.50;3.58;;;-1.40;99.90;;;;;;5024189;28;20377;-49
2021/01/30 09:35:02;;;;;;;7.38;4.20;;;-1.30;99.90;;;;;;5025834;28;20045;-53
2021/01/30 09:37:43;;;;;;;4.45;3.05;;;-1.30;99.90;;;;;;5016461;28;20547;-51
2021/01/30 09:40:19;;;;;;;5.55;3.70;;;-1.20;99.90;;;;;;5025537;28;20057;-47
2021/01/30 09:42:59;;;;;;;4.55;3.22;;;-1.20;99.90;;;;;;5024907;28;20033;-48
2021/01/30 09:45:25;;;;;;;4.90;3.20;;;-1.20;99.90;;;;;;5024272;28;20168;-52
2021/01/30 09:47:52;;;;;;;13.45;6.32;;;-1.20;99.90;;;;;;5017302;28;20124;-56
2021/01/30 09:50:22;;;;;;;5.63;3.88;;;-1.00;99.90;;;;;;5025931;28;20042;-54
2021/01/30 09:52:57;;;;;;;6.47;3.97;;;-1.00;99.90;;;;;;5008254;28;20125;-50
2021/01/30 09:55:25;;;;;;;6.25;4.30;;;-1.00;99.90;;;;;;5022446;28;20080;-48
2021/01/30 09:57:57;;;;;;;6.88;4.50;;;-1.00;99.90;;;;;;5019563;28;20041;-51
2021/01/30 10:00:31;;;;;;;8.48;5.47;;;-1.10;99.90;;;;;;5025965;28;20179;-53
2021/01/30 10:03:21;;;;;;;9.07;4.70;;;-0.90;99.90;;;;;;5025740;28;20458;-50
2021/01/30 10:05:48;;;;;;;4.63;3.30;;;-0.60;99.90;;;;;;5022473;28;20382;-53
2021/01/30 10:08:22;;;;;;;9.13;5.93;;;-0.60;99.90;;;;;;5017937;28;20038;-51
2021/01/30 10:10:47;;;;;;;5.13;3.72;;;-0.80;99.90;;;;;;5026475;28;20258;-49
2021/01/30 10:13:16;;;;;;;5.10;3.55;;;-0.80;99.90;;;;;;5017929;28;20649;-53
2021/01/30 10:15:47;;;;;;;7.68;4.20;;;-0.80;99.90;;;;;;5021892;28;20033;-50
2021/01/30 10:18:19;;;;;;;6.55;3.88;;;-0.70;99.90;;;;;;5038334;28;20043;-52
2021/01/30 10:20:50;;;;;;;5.20;3.90;;;-0.60;99.90;;;;;;5020104;28;20037;-51
2021/01/30 10:23:48;;;;;;;4.95;3.72;;;-0.40;99.90;;;;;;5027582;28;20121;-50
2021/01/30 10:26:24;;;;;;;;;;;-0.40;99.90;;;;;;5018432;28;20740;-52
2021/01/30 10:28:56;;;;;;;9.60;5.85;;;-0.40;99.90;;;;;;5018736;28;19921;-48
2021/01/30 10:31:50;;;;;;;15.57;9.27;;;-0.30;99.90;;;;;;5019030;28;20067;-50
2021/01/30 10:34:43;;;;;;;12.75;5.53;;;-0.20;99.90;;;;;;5018863;28;20052;-52
2021/01/30 10:37:13;;;;;;;10.95;5.20;;;0.10;99.90;;;;;;5011218;28;20093;-54
2021/01/30 10:39:50;;;;;;;5.55;3.97;;;0.10;99.90;;;;;;5021978;28;20083;-50
2021/01/30 10:42:23;;;;;;;5.88;4.28;;;0.00;99.90;;;;;;5024511;28;20045;-52
2021/01/30 10:44:58;;;;;;;4.32;3.08;;;-0.20;99.90;;;;;;5022432;28;20057;-48
2021/01/30 10:47:26;;;;;;;5.10;3.35;;;-0.20;99.90;;;;;;5022735;28;20060;-48
2021/01/30 10:50:09;;;;;;;9.27;4.80;;;-0.40;99.90;;;;;;5017216;28;20048;-50
2021/01/30 10:52:35;;;;;;;5.40;3.60;;;-0.50;99.90;;;;;;5019705;28;20052;-50
2021/01/30 10:55:33;;;;;;;5.13;3.80;;;-0.60;99.90;;;;;;5017189;28;20049;-52
2021/01/30 10:58:18;;;;;;;6.95;4.35;;;-0.50;99.90;;;;;;5021736;28;20301;-54
2021/01/30 11:00:56;;;;;;;7.35;4.60;;;-0.60;99.90;;;;;;5013622;28;20125;-51
2021/01/30 11:03:26;;;;;;;6.93;3.75;;;-0.20;99.90;;;;;;5018290;28;20498;-52
2021/01/30 11:05:53;;;;;;;5.47;3.40;;;0.00;99.90;;;;;;5018223;28;20041;-51
2021/01/30 11:08:31;;;;;;;21.27;12.27;;;0.40;99.90;;;;;;5015843;28;20045;-52
2021/01/30 11:11:04;;;;;;;10.25;6.22;;;0.70;99.90;;;;;;5030263;28;20191;-51
2021/01/30 11:13:34;;;;;;;5.80;3.90;;;0.60;99.90;;;;;;5024275;28;20099;-52
2021/01/30 11:16:20;;;;;;;6.30;4.05;;;0.40;99.90;;;;;;5025301;28;20041;-52
2021/01/30 11:18:47;;;;;;;4.05;3.00;;;0.50;99.90;;;;;;5019435;28;20363;-51
2021/01/30 11:21:27;;;;;;;3.75;2.70;;;0.50;99.90;;;;;;5031819;28;20116;-50
2021/01/30 11:23:53;;;;;;;4.35;3.25;;;0.50;99.90;;;;;;5018987;28;20605;-50
2021/01/30 11:26:31;;;;;;;9.30;5.68;;;0.20;99.90;;;;;;5028968;28;20046;-49
2021/01/30 11:28:58;;;;;;;5.07;2.95;;;0.10;99.90;;;;;;5029431;28;20045;-53
2021/01/30 11:31:24;;;;;;;5.82;3.22;;;0.10;99.90;;;;;;5016357;28;20054;-50
2021/01/30 11:33:55;;;;;;;4.65;3.03;;;-0.10;99.90;;;;;;5020603;28;20065;-51
2021/01/30 11:36:21;;;;;;;7.15;4.65;;;-0.30;99.90;;;;;;5015525;28;20501;-48
2021/01/30 11:39:03;;;;;;;6.50;4.50;;;-0.40;99.90;;;;;;5023047;28;20037;-52
2021/01/30 11:41:29;;;;;;;8.25;5.35;;;-0.40;99.90;;;;;;5022306;28;20045;-50
2021/01/30 11:43:55;;;;;;;7.97;4.60;;;-0.40;99.90;;;;;;5023204;28;20187;-54
2021/01/30 11:46:21;;;;;;;8.20;4.05;;;-0.20;99.90;;;;;;5016985;28;20034;-50
2021/01/30 11:48:47;;;;;;;8.27;4.90;;;0.00;99.90;;;;;;5021859;28;20037;-50
2021/01/30 11:51:21;;;;;;;7.85;4.50;;;0.00;99.90;;;;;;5013718;28;20065;-52
2021/01/30 11:53:46;;;;;;;6.35;3.88;;;-0.20;99.90;;;;;;5012699;28;20069;-53
2021/01/30 11:56:12;;;;;;;3.88;2.97;;;-0.20;99.90;;;;;;5020121;28;20064;-49
2021/01/30 11:58:37;;;;;;;4.35;2.58;;;-0.30;99.90;;;;;;5015088;28;20036;-48
2021/01/30 12:01:04;;;;;;;6.35;3.83;;;-0.40;99.90;;;;;;5024652;28;20055;-51
2021/01/30 12:03:30;;;;;;;5.45;3.05;;;-0.40;99.90;;;;;;5019136;28;20129;-50
2021/01/30 12:05:56;;;;;;;3.97;2.80;;;-0.20;99.90;;;;;;5024174;28;20136;-52
2021/01/30 12:08:23;;;;;;;4.32;2.25;;;0.10;99.90;;;;;;5029106;28;20041;-50
2021/01/30 12:10:50;;;;;;;3.45;2.80;;;0.00;99.90;;;;;;5024190;28;20169;-51
2021/01/30 12:13:15;;;;;;;3.30;2.45;;;-0.10;99.90;;;;;;5029737;28;20116;-50
2021/01/30 12:15:41;;;;;;;3.38;2.13;;;-0.20;99.90;;;;;;5026062;28;20483;-48
2021/01/30 12:18:08;;;;;;;3.33;2.65;;;-0.30;99.90;;;;;;5021985;28;20037;-52
2021/01/30 12:20:35;;;;;;;10.85;6.65;;;-0.20;99.90;;;;;;5020697;28;20048;-54
2021/01/30 12:23:02;;;;;;;5.72;3.10;;;0.00;99.90;;;;;;5020563;28;20608;-51
2021/01/30 12:25:28;;;;;;;6.22;4.15;;;0.10;99.90;;;;;;5013304;28;20053;-50
2021/01/30 12:27:55;;;;;;;3.67;2.83;;;0.20;99.90;;;;;;5025092;28;20042;-52
2021/01/30 12:30:27;;;;;;;9.10;5.88;;;0.30;99.90;;;;;;5012468;28;20158;-50
2021/01/30 12:32:53;;;;;;;6.93;3.45;;;0.30;99.90;;;;;;5027330;28;20678;-53
2021/01/30 12:35:22;;;;;;;4.82;3.20;;;0.30;99.90;;;;;;5020086;28;20544;-51
2021/01/30 12:37:47;;;;;;;4.30;2.92;;;0.40;99.90;;;;;;5028928;28;20068;-54
2021/01/30 12:40:15;;;;;;;7.13;3.72;;;0.40;99.90;;;;;;5025374;28;20642;-51
2021/01/30 12:42:41;;;;;;;29.10;16.67;;;0.60;99.90;;;;;;5019212;28;20061;-52
2021/01/30 12:45:08;;;;;;;13.98;7.28;;;0.50;99.90;;;;;;5024839;28;20059;-52
2021/01/30 12:47:35;;;;;;;4.85;3.15;;;0.60;99.90;;;;;;5027697;28;20653;-52
2021/01/30 12:50:00;;;;;;;5.75;3.55;;;0.50;99.90;;;;;;5008187;28;20038;-49
2021/01/30 12:52:26;;;;;;;4.32;2.83;;;0.50;99.90;;;;;;5008103;28;20045;-50
2021/01/30 12:54:52;;;;;;;5.93;2.97;;;0.60;99.90;;;;;;5008522;28;20068;-50
2021/01/30 12:57:18;;;;;;;3.85;2.20;;;0.50;99.90;;;;;;5009685;28;20087;-47
2021/01/30 12:59:44;;;;;;;3.92;3.00;;;0.40;99.90;;;;;;5006757;28;20041;-50
2021/01/30 13:02:10;;;;;;;4.07;2.58;;;0.40;99.90;;;;;;5006321;28;20042;-47
2021/01/30 13:04:35;;;;;;;3.75;2.60;;;0.10;99.90;;;;;;5007816;28;20049;-47
2021/01/30 13:07:01;;;;;;;4.00;2.78;;;0.00;99.90;;;;;;5008451;28;20087;-49
2021/01/30 13:09:27;;;;;;;5.10;2.90;;;-0.10;99.90;;;;;;5017539;28;20037;-48
2021/01/30 13:11:53;;;;;;;4.57;2.53;;;-0.10;99.90;;;;;;5021654;28;20038;-52
2021/01/30 13:14:18;;;;;;;4.35;2.70;;;-0.10;99.90;;;;;;5026157;28;21119;-50